Impacts TAF Board
For situational awareness. Not to be used for flight planning purposes.
IDs:

KLAX - Los Angeles Intl, CA, US

Issued at 0545 UTC 23 Feb 2019
Updated at 0623 UTC 23 Feb 2019
Potential Impact None Slight Moderate High
Time0553Z 23/07Z 23/08Z 23/09Z 23/10Z 23/11Z 23/12Z 23/13Z 23/14Z 23/15Z 23/16Z 23/17Z 23/18Z 23/19Z>>
Type OBS PRVL PRVL PRVL PRVL PRVL PRVL PRVL PRVL PRVL PRVL PRVL PRVL PRVL
VIS 10 >6 >6 >6 >6 >6 >6 >6 >6 >6 >6 >6 >6 >6
CIG -- -- -- -- -- -- -- -- -- -- -- -- -- --
Cover CLR SKC SKC SKC SKC SKC SKC SKC SKC SKC SKC SKC SKC SKC
FltCat VFR VFR VFR VFR VFR VFR VFR VFR VFR VFR VFR VFR VFR VFR
WX -- -- -- -- -- -- -- -- -- -- -- -- -- --
WDir 120 VRB VRB VRB VRB VRB VRB VRB 40 40 40 40 40 40
WSpd 4 3 3 3 3 3 3 3 6 6 6 6 6 6
WGst -- -- -- -- -- -- -- -- -- -- -- -- -- --
Raw TAF
KLAX 230545Z 2306/2412 VRB03KT P6SM SKC
  FM231400 04006KT P6SM SKC
  FM232000 25010KT P6SM SKC
  FM240300 VRB03KT P6SM SKC


Raw METAR
KLAX 230553Z 12004KT 10SM CLR 11/M02 A3017 RMK AO2 SLP216 T01061022 10144 20106 53020 $
KLAX 230453Z 36004KT 10SM CLR 12/M03 A3015 RMK AO2 SLP208 T01221033 $
KLAX 230353Z 30006KT 10SM CLR 12/02 A3013 RMK AO2 SLP203 T01220022 $

METAR Board
Radar Display
Forecast Discussion
For situational awareness. Not to be used for flight planning purposes.